Knightsen, California
Current Conditions -  °F | °C
As of 11:53 AM on Friday 19 Dec 2014 (Local Time) from KLVK Reporting Station
Light Rain Light Rain  
Wind Chill: 61°   Ceiling: 3000
Heat Index: 61°   Visibility: 10mi
Dew Point: 50°   Wind: 8mph
Humidity: 67%   Direction: 180°S
Pressure: 30.13"   Gusts: NA
Location:  37.97°N, 121.67°W
Report Text: KLVK 191953Z 18007KT 10SM -RA BKN030 BKN035 OVC070 16/10 A3013 RMK AO2 RAB31 SLP202 P0000 T01610100
Loading
Personal Weather Stations






























Interactive Weather Map New forecast layout! Learn more

10-Day Weather Forecast

Advertisements
Track Severe Weather on mobile